Time;durP1;ratioP1;P1;durP2;ratioP2;P2;SDS_P1;SDS_P2;PMS_P1;PMS_P2;Temp;Humidity;BMP_temperature;BMP_pressure;BME280_temperature;BME280_humidity;BME280_pressure;Samples;Min_cycle;Max_cycle;Signal;HPM_P1;HPM_P2
2021/01/03 00:03:50;;;;;;;34.50;20.90;;;;;;;;;;5301512;23;20250;-96
2021/01/03 00:15:05;;;;;;;34.08;20.88;;;;;;;;;;4994441;28;20446;-96
2021/01/03 00:17:58;;;;;;;32.90;20.97;;;;;;;;;;5014207;28;20227;-96
2021/01/03 00:28:37;;;;;;;30.05;19.30;;;;;;;;;;5010597;28;20294;-96
2021/01/03 00:31:11;;;;;;;28.52;19.08;;;;;;;;;;4999117;28;20291;-96
2021/01/03 00:33:38;;;;;;;29.85;19.13;;;;;;;;;;5012443;28;20214;-96
2021/01/03 00:36:14;;;;;;;29.17;20.83;;;;;;;;;;5011691;28;20295;-94
2021/01/03 00:53:48;;;;;;;28.00;20.70;;;;;;;;;;5565966;23;20275;-93
2021/01/03 00:58:49;;;;;;;33.30;21.05;;;;;;;;;;5258994;23;20494;-95
2021/01/03 01:04:40;;;;;;;27.60;18.77;;;;;;;;;;4999436;28;20451;-95
2021/01/03 01:07:06;;;;;;;27.98;18.88;;;;;;;;;;5048604;28;20222;-96
2021/01/03 01:09:33;;;;;;;31.25;18.67;;;;;;;;;;5046549;28;20232;-94
2021/01/03 01:11:59;;;;;;;27.52;19.10;;;;;;;;;;5045196;28;20207;-96
2021/01/03 01:14:25;;;;;;;29.67;19.30;;;;;;;;;;5062782;28;20209;-95
2021/01/03 01:16:52;;;;;;;28.23;17.83;;;;;;;;;;5066336;28;20209;-94
2021/01/03 01:19:18;;;;;;;28.83;19.77;;;;;;;;;;5061154;28;20225;-96
2021/01/03 01:21:44;;;;;;;26.45;18.98;;;;;;;;;;5064279;28;20476;-95
2021/01/03 01:24:10;;;;;;;33.17;22.43;;;;;;;;;;5061773;28;20200;-95
2021/01/03 01:26:37;;;;;;;34.60;21.90;;;;;;;;;;5065647;28;20454;-95
2021/01/03 01:29:03;;;;;;;36.20;23.23;;;;;;;;;;5063277;28;20465;-94
2021/01/03 01:31:29;;;;;;;32.37;22.70;;;;;;;;;;5063803;28;20456;-96
2021/01/03 01:33:55;;;;;;;21.03;16.40;;;;;;;;;;5068937;28;20462;-95
2021/01/03 01:36:21;;;;;;;27.30;17.67;;;;;;;;;;5068017;28;20456;-94
2021/01/03 01:38:47;;;;;;;26.65;19.00;;;;;;;;;;5047801;28;20212;-96
2021/01/03 01:41:13;;;;;;;25.15;18.08;;;;;;;;;;5049016;28;20222;-94
2021/01/03 01:43:40;;;;;;;21.55;16.42;;;;;;;;;;5065527;28;20206;-96
2021/01/03 01:46:07;;;;;;;30.20;19.90;;;;;;;;;;5063245;28;20206;-94
2021/01/03 01:48:35;;;;;;;24.47;16.87;;;;;;;;;;5045431;28;20211;-96
2021/01/03 01:51:04;;;;;;;28.60;18.20;;;;;;;;;;5044533;28;20530;-96
2021/01/03 01:53:32;;;;;;;28.13;18.65;;;;;;;;;;5058761;28;20213;-95
2021/01/03 01:56:01;;;;;;;28.67;19.40;;;;;;;;;;5063826;28;20576;-96
2021/01/03 01:58:32;;;;;;;27.70;18.30;;;;;;;;;;5061704;28;20470;-94
2021/01/03 02:01:02;;;;;;;26.02;18.15;;;;;;;;;;5065252;28;20464;-95
2021/01/03 02:03:30;;;;;;;32.33;20.45;;;;;;;;;;5064618;28;20233;-96
2021/01/03 02:05:57;;;;;;;33.10;21.17;;;;;;;;;;5064593;28;20225;-95
2021/01/03 02:08:29;;;;;;;32.73;21.60;;;;;;;;;;5064422;28;20473;-95
2021/01/03 02:10:55;;;;;;;30.73;20.80;;;;;;;;;;5065099;28;20551;-95
2021/01/03 02:13:22;;;;;;;33.45;22.10;;;;;;;;;;5062420;28;20473;-96
2021/01/03 02:15:49;;;;;;;35.88;24.08;;;;;;;;;;5063306;28;20199;-96
2021/01/03 02:18:17;;;;;;;35.50;24.07;;;;;;;;;;5064496;28;20207;-95
2021/01/03 02:20:47;;;;;;;34.22;22.75;;;;;;;;;;5062430;28;20466;-96
2021/01/03 02:23:15;;;;;;;39.20;24.58;;;;;;;;;;5067794;28;20208;-95
2021/01/03 02:25:42;;;;;;;39.22;24.60;;;;;;;;;;5067395;28;20202;-95
2021/01/03 02:28:12;;;;;;;37.45;24.60;;;;;;;;;;5046889;28;20257;-96
2021/01/03 02:30:39;;;;;;;36.27;24.17;;;;;;;;;;5049251;28;20223;-96
2021/01/03 02:33:08;;;;;;;35.85;24.13;;;;;;;;;;5064715;28;20450;-96
2021/01/03 02:35:34;;;;;;;34.72;24.65;;;;;;;;;;5058690;28;20200;-95
2021/01/03 02:38:01;;;;;;;36.83;23.67;;;;;;;;;;5062150;28;20212;-95
2021/01/03 02:40:27;;;;;;;36.15;24.75;;;;;;;;;;5062536;28;21639;-94
2021/01/03 02:42:54;;;;;;;44.90;26.37;;;;;;;;;;5063617;28;20225;-95
2021/01/03 02:45:21;;;;;;;36.20;23.58;;;;;;;;;;5058066;28;20458;-94
2021/01/03 02:47:47;;;;;;;51.22;25.83;;;;;;;;;;5050789;28;20208;-95
2021/01/03 02:50:15;;;;;;;26.10;17.02;;;;;;;;;;5061461;28;20230;-93
2021/01/03 02:52:42;;;;;;;25.13;17.27;;;;;;;;;;5059091;28;20211;-95
2021/01/03 02:55:09;;;;;;;21.45;15.55;;;;;;;;;;5058404;28;20705;-94
2021/01/03 02:57:35;;;;;;;21.80;15.80;;;;;;;;;;5042658;28;20215;-95
2021/01/03 03:00:03;;;;;;;23.60;17.10;;;;;;;;;;5060660;28;20231;-96
2021/01/03 03:02:29;;;;;;;25.40;15.60;;;;;;;;;;5061872;28;20451;-96
2021/01/03 03:04:55;;;;;;;26.65;17.65;;;;;;;;;;5058355;28;20470;-95
2021/01/03 03:07:21;;;;;;;23.93;16.90;;;;;;;;;;5062811;28;20203;-95
2021/01/03 03:09:47;;;;;;;27.80;17.05;;;;;;;;;;5058854;28;20501;-95
2021/01/03 03:12:13;;;;;;;31.38;17.92;;;;;;;;;;5062699;28;20222;-95
2021/01/03 03:14:39;;;;;;;34.20;19.50;;;;;;;;;;5058715;28;20208;-94
2021/01/03 03:17:07;;;;;;;27.53;17.97;;;;;;;;;;5062484;28;20451;-96
2021/01/03 03:19:34;;;;;;;28.13;19.35;;;;;;;;;;5061467;28;20444;-94
2021/01/03 03:22:00;;;;;;;27.17;18.00;;;;;;;;;;5062226;28;20205;-96
2021/01/03 03:24:26;;;;;;;25.83;18.52;;;;;;;;;;5056751;28;20616;-96
2021/01/03 03:26:52;;;;;;;29.08;20.33;;;;;;;;;;5056924;28;20222;-95
2021/01/03 03:29:18;;;;;;;30.15;20.02;;;;;;;;;;5063220;28;20196;-95
2021/01/03 03:31:44;;;;;;;32.53;22.40;;;;;;;;;;5061503;28;20249;-96
2021/01/03 03:34:11;;;;;;;28.30;19.80;;;;;;;;;;5061675;28;20528;-96
2021/01/03 03:36:37;;;;;;;28.27;19.45;;;;;;;;;;5060016;28;21100;-96
2021/01/03 03:39:03;;;;;;;26.33;18.20;;;;;;;;;;5061229;28;20203;-96
2021/01/03 03:41:29;;;;;;;24.55;18.58;;;;;;;;;;5059942;28;20455;-95
2021/01/03 03:43:55;;;;;;;29.67;20.73;;;;;;;;;;5061376;28;20207;-95
2021/01/03 03:46:21;;;;;;;27.10;18.27;;;;;;;;;;5062410;28;20448;-95
2021/01/03 03:48:47;;;;;;;28.33;18.50;;;;;;;;;;5059006;28;20445;-95
2021/01/03 03:51:16;;;;;;;28.73;18.77;;;;;;;;;;5061172;28;20497;-94
2021/01/03 03:53:42;;;;;;;27.73;18.37;;;;;;;;;;5060240;28;20477;-95
2021/01/03 03:56:08;;;;;;;29.65;18.65;;;;;;;;;;5062642;28;20450;-95
2021/01/03 03:58:34;;;;;;;29.90;19.23;;;;;;;;;;5059718;28;20200;-96
2021/01/03 04:01:00;;;;;;;29.73;18.40;;;;;;;;;;5062014;28;20460;-94
2021/01/03 04:03:26;;;;;;;30.23;19.50;;;;;;;;;;5061776;28;20465;-94
2021/01/03 04:05:52;;;;;;;28.80;19.90;;;;;;;;;;5060405;28;20453;-95
2021/01/03 04:08:19;;;;;;;29.20;18.33;;;;;;;;;;5061551;28;20475;-95
2021/01/03 04:10:45;;;;;;;27.83;18.80;;;;;;;;;;5059119;28;20498;-94
2021/01/03 04:13:11;;;;;;;28.20;19.73;;;;;;;;;;5053792;28;20465;-94
2021/01/03 04:15:38;;;;;;;30.40;19.70;;;;;;;;;;5048674;28;20454;-95
2021/01/03 04:18:04;;;;;;;28.97;20.53;;;;;;;;;;5061587;28;20453;-94
2021/01/03 04:20:30;;;;;;;33.17;19.73;;;;;;;;;;5058494;28;20957;-95
2021/01/03 04:22:56;;;;;;;31.97;18.80;;;;;;;;;;5062741;28;20493;-93
2021/01/03 04:25:23;;;;;;;27.73;19.27;;;;;;;;;;5060811;28;20445;-93
2021/01/03 04:27:51;;;;;;;28.40;19.17;;;;;;;;;;5060372;28;20462;-94
2021/01/03 04:30:18;;;;;;;30.90;21.00;;;;;;;;;;5063045;28;20493;-95
2021/01/03 04:32:44;;;;;;;29.70;21.20;;;;;;;;;;5058945;28;20972;-95
2021/01/03 04:35:11;;;;;;;34.17;21.50;;;;;;;;;;5060946;28;20453;-95
2021/01/03 04:37:37;;;;;;;34.60;21.60;;;;;;;;;;5057984;28;20460;-95
2021/01/03 04:40:03;;;;;;;32.37;21.37;;;;;;;;;;5061524;28;20218;-94
2021/01/03 04:42:32;;;;;;;33.70;21.70;;;;;;;;;;5059306;28;20466;-95
2021/01/03 04:45:00;;;;;;;33.97;20.43;;;;;;;;;;5061790;28;20446;-95
2021/01/03 04:47:27;;;;;;;31.03;20.40;;;;;;;;;;5059875;28;20480;-95
2021/01/03 04:50:00;;;;;;;41.25;23.02;;;;;;;;;;5060811;28;20490;-94
2021/01/03 04:52:56;;;;;;;32.90;19.63;;;;;;;;;;5061635;28;20761;-95
2021/01/03 04:55:22;;;;;;;34.77;22.20;;;;;;;;;;5061208;28;20458;-95
2021/01/03 04:57:55;;;;;;;35.77;22.73;;;;;;;;;;5045096;28;20481;-94
2021/01/03 05:00:22;;;;;;;36.30;22.67;;;;;;;;;;5058762;28;20469;-95
2021/01/03 05:03:00;;;;;;;36.30;22.50;;;;;;;;;;5046586;28;20470;-94
2021/01/03 05:05:28;;;;;;;32.90;21.67;;;;;;;;;;5051786;28;20483;-94
2021/01/03 05:08:02;;;;;;;35.93;20.70;;;;;;;;;;5059453;28;20462;-94
2021/01/03 05:10:28;;;;;;;38.30;23.00;;;;;;;;;;5056226;28;20492;-93
2021/01/03 05:13:00;;;;;;;36.00;22.80;;;;;;;;;;5045372;28;20487;-94
2021/01/03 05:15:27;;;;;;;38.10;21.33;;;;;;;;;;5044538;28;20491;-94
2021/01/03 05:17:53;;;;;;;33.83;21.73;;;;;;;;;;5063674;28;20458;-95
2021/01/03 05:20:19;;;;;;;34.03;21.00;;;;;;;;;;5065165;28;20442;-95
2021/01/03 05:22:46;;;;;;;34.30;21.73;;;;;;;;;;5060911;28;20497;-94
2021/01/03 05:25:13;;;;;;;41.60;22.23;;;;;;;;;;5064648;28;20462;-94
2021/01/03 05:27:39;;;;;;;39.23;22.37;;;;;;;;;;5061237;28;20450;-95
2021/01/03 05:30:14;;;;;;;33.27;21.37;;;;;;;;;;5065213;28;20872;-93
2021/01/03 05:32:40;;;;;;;33.75;21.77;;;;;;;;;;5052541;28;20462;-93
2021/01/03 05:35:16;;;;;;;34.63;21.80;;;;;;;;;;5065170;28;20219;-93
2021/01/03 05:37:43;;;;;;;38.10;23.57;;;;;;;;;;5063756;28;20494;-93
2021/01/03 05:40:18;;;;;;;45.90;25.73;;;;;;;;;;5064246;28;20512;-94
2021/01/03 05:42:44;;;;;;;41.70;23.10;;;;;;;;;;5060623;28;20527;-92
2021/01/03 05:45:12;;;;;;;40.73;23.37;;;;;;;;;;5062893;28;20457;-94
2021/01/03 05:47:39;;;;;;;35.00;22.27;;;;;;;;;;5062910;28;20453;-94
2021/01/03 05:50:25;;;;;;;36.97;21.40;;;;;;;;;;5059402;28;20493;-94
2021/01/03 05:52:52;;;;;;;32.10;20.77;;;;;;;;;;5064250;28;20434;-92
2021/01/03 05:55:22;;;;;;;33.13;22.27;;;;;;;;;;5062358;28;20450;-93
2021/01/03 05:57:48;;;;;;;39.60;23.17;;;;;;;;;;5063804;28;20536;-92
2021/01/03 06:00:15;;;;;;;35.10;22.60;;;;;;;;;;5052266;28;20483;-93
2021/01/03 06:02:42;;;;;;;38.57;24.03;;;;;;;;;;5043126;28;20449;-94
2021/01/03 06:05:09;;;;;;;38.10;23.87;;;;;;;;;;5045951;28;20454;-92
2021/01/03 06:07:36;;;;;;;41.63;24.57;;;;;;;;;;5063138;28;20457;-93
2021/01/03 06:10:03;;;;;;;37.90;23.90;;;;;;;;;;5055816;28;20493;-93
2021/01/03 06:12:30;;;;;;;47.43;29.20;;;;;;;;;;5060612;28;20469;-93
2021/01/03 06:14:57;;;;;;;44.63;28.10;;;;;;;;;;5063679;28;20972;-93
2021/01/03 06:17:32;;;;;;;43.57;26.80;;;;;;;;;;5060315;28;20974;-94
2021/01/03 06:20:03;;;;;;;44.13;27.27;;;;;;;;;;5063663;28;20465;-93
2021/01/03 06:22:36;;;;;;;43.60;28.27;;;;;;;;;;5060002;28;21003;-93
2021/01/03 06:25:10;;;;;;;43.60;27.20;;;;;;;;;;5063500;28;20450;-93
2021/01/03 06:27:36;;;;;;;46.33;31.23;;;;;;;;;;5060004;28;20469;-93
2021/01/03 06:30:04;;;;;;;44.03;29.30;;;;;;;;;;5061498;28;20498;-93
2021/01/03 06:32:46;;;;;;;40.37;25.23;;;;;;;;;;5058464;28;20462;-92
2021/01/03 06:35:21;;;;;;;46.50;26.10;;;;;;;;;;5062822;28;20450;-93
2021/01/03 06:37:49;;;;;;;39.90;24.17;;;;;;;;;;5060794;28;20482;-93
2021/01/03 06:40:22;;;;;;;38.90;24.60;;;;;;;;;;5046274;28;20827;-93
2021/01/03 06:43:07;;;;;;;42.73;25.27;;;;;;;;;;5042844;28;20943;-93
2021/01/03 06:45:51;;;;;;;38.50;27.00;;;;;;;;;;5061111;28;20853;-94
2021/01/03 06:48:32;;;;;;;48.00;31.23;;;;;;;;;;5057684;28;20438;-94
2021/01/03 06:51:10;;;;;;;43.97;27.70;;;;;;;;;;5057076;28;20488;-93
2021/01/03 06:53:54;;;;;;;45.57;27.07;;;;;;;;;;5058485;28;20469;-94
2021/01/03 06:56:44;;;;;;;37.47;24.97;;;;;;;;;;5036674;28;20450;-91
2021/01/03 06:59:22;;;;;;;38.97;24.20;;;;;;;;;;5049735;28;20484;-91
2021/01/03 07:01:48;;;;;;;40.97;24.50;;;;;;;;;;5058580;28;20481;-91
2021/01/03 07:04:16;;;;;;;36.53;24.90;;;;;;;;;;5061304;28;20451;-93
2021/01/03 07:06:44;;;;;;;36.07;22.90;;;;;;;;;;5061525;28;20438;-95
2021/01/03 07:09:12;;;;;;;35.70;21.80;;;;;;;;;;5049848;28;21240;-96
2021/01/03 07:11:43;;;;;;;40.73;24.50;;;;;;;;;;5050883;28;20500;-95
2021/01/03 07:14:12;;;;;;;34.47;20.97;;;;;;;;;;5062867;28;20507;-94
2021/01/03 07:16:46;;;;;;;34.63;23.70;;;;;;;;;;5060584;28;20467;-95
2021/01/03 07:19:13;;;;;;;37.50;22.30;;;;;;;;;;5060613;28;20465;-95
2021/01/03 07:21:44;;;;;;;33.17;21.40;;;;;;;;;;5059657;28;20444;-94
2021/01/03 07:24:36;;;;;;;30.23;20.97;;;;;;;;;;5057441;28;20881;-94
2021/01/03 07:27:16;;;;;;;56.97;38.27;;;;;;;;;;5024478;28;20536;-92
2021/01/03 07:29:49;;;;;;;93.47;57.60;;;;;;;;;;5039363;28;20871;-93
2021/01/03 07:32:16;;;;;;;83.07;54.17;;;;;;;;;;5040767;28;20455;-92
2021/01/03 07:34:42;;;;;;;94.60;57.77;;;;;;;;;;5060000;28;20446;-93
2021/01/03 07:37:16;;;;;;;89.17;55.50;;;;;;;;;;5060768;28;20453;-92
2021/01/03 07:39:55;;;;;;;71.77;48.80;;;;;;;;;;5055945;28;20453;-92
2021/01/03 07:42:23;;;;;;;68.40;44.50;;;;;;;;;;5061643;28;20472;-92
2021/01/03 07:44:50;;;;;;;64.30;44.83;;;;;;;;;;5059537;28;20498;-93
2021/01/03 07:47:33;;;;;;;74.40;48.30;;;;;;;;;;5065778;28;20478;-92
2021/01/03 07:50:19;;;;;;;63.33;41.63;;;;;;;;;;5049437;28;20492;-92
2021/01/03 07:52:46;;;;;;;62.17;38.40;;;;;;;;;;5060344;28;20441;-92
2021/01/03 07:55:14;;;;;;;42.00;28.03;;;;;;;;;;5057865;28;20434;-93
2021/01/03 07:57:40;;;;;;;35.07;21.13;;;;;;;;;;5058406;28;20462;-93
2021/01/03 08:00:06;;;;;;;33.77;22.03;;;;;;;;;;5058330;28;20477;-93
2021/01/03 08:02:35;;;;;;;40.50;25.77;;;;;;;;;;5058960;28;20457;-92
2021/01/03 08:05:01;;;;;;;41.47;28.07;;;;;;;;;;5040880;28;20962;-94
2021/01/03 08:07:27;;;;;;;41.10;27.80;;;;;;;;;;5042877;28;20470;-92
2021/01/03 08:09:54;;;;;;;45.47;27.40;;;;;;;;;;5041837;28;20490;-93
2021/01/03 08:12:22;;;;;;;34.20;23.77;;;;;;;;;;5048681;28;20449;-93
2021/01/03 08:14:50;;;;;;;31.60;23.10;;;;;;;;;;5060230;28;20922;-93
2021/01/03 08:17:20;;;;;;;33.60;21.87;;;;;;;;;;5050286;28;20454;-92
2021/01/03 08:19:47;;;;;;;32.63;22.50;;;;;;;;;;5042777;28;20450;-93
2021/01/03 08:22:13;;;;;;;25.60;17.20;;;;;;;;;;5042388;28;20450;-92
2021/01/03 08:24:39;;;;;;;29.17;18.20;;;;;;;;;;5060130;28;20457;-93
2021/01/03 08:27:13;;;;;;;29.00;19.57;;;;;;;;;;5061070;28;20464;-92
2021/01/03 08:29:41;;;;;;;26.63;18.97;;;;;;;;;;5059238;28;21019;-93
2021/01/03 08:32:10;;;;;;;26.80;17.67;;;;;;;;;;5061786;28;20445;-92
2021/01/03 08:34:37;;;;;;;28.10;17.30;;;;;;;;;;5057763;28;21314;-92
2021/01/03 08:37:12;;;;;;;22.83;17.37;;;;;;;;;;5042872;28;20497;-92
2021/01/03 08:39:38;;;;;;;26.27;18.00;;;;;;;;;;5049472;28;20457;-93
2021/01/03 08:42:06;;;;;;;25.67;17.70;;;;;;;;;;5062649;28;20821;-93
2021/01/03 08:44:35;;;;;;;21.33;15.70;;;;;;;;;;5058276;28;20489;-93
2021/01/03 08:47:03;;;;;;;26.03;16.63;;;;;;;;;;5053255;28;20457;-94
2021/01/03 08:49:29;;;;;;;29.07;18.10;;;;;;;;;;5048978;28;20509;-93
2021/01/03 08:52:08;;;;;;;28.50;20.37;;;;;;;;;;5062292;28;20489;-93
2021/01/03 08:54:34;;;;;;;37.07;24.90;;;;;;;;;;5064601;28;20476;-93
2021/01/03 08:57:01;;;;;;;40.27;27.00;;;;;;;;;;5056850;28;20474;-93
2021/01/03 08:59:27;;;;;;;41.10;27.63;;;;;;;;;;5066041;28;20500;-94
2021/01/03 09:01:54;;;;;;;31.40;22.80;;;;;;;;;;5062146;28;20523;-93
2021/01/03 09:04:21;;;;;;;27.20;20.73;;;;;;;;;;5049201;28;20451;-93
2021/01/03 09:06:51;;;;;;;27.03;19.30;;;;;;;;;;5064994;28;20469;-93
2021/01/03 09:09:18;;;;;;;29.17;19.30;;;;;;;;;;5064740;28;20473;-94
2021/01/03 09:11:49;;;;;;;25.77;17.27;;;;;;;;;;5062589;28;20493;-93
2021/01/03 09:14:21;;;;;;;28.67;18.33;;;;;;;;;;5061684;28;20457;-94
2021/01/03 09:16:52;;;;;;;24.93;17.87;;;;;;;;;;5042458;28;20454;-93
2021/01/03 09:19:21;;;;;;;56.77;40.20;;;;;;;;;;5060417;28;20461;-93
2021/01/03 09:21:48;;;;;;;64.13;44.80;;;;;;;;;;5062339;28;20457;-94
2021/01/03 09:24:19;;;;;;;52.70;37.37;;;;;;;;;;5061372;28;20531;-94
2021/01/03 09:26:45;;;;;;;50.40;34.67;;;;;;;;;;5064938;28;20461;-93
2021/01/03 09:29:13;;;;;;;49.17;35.23;;;;;;;;;;5059053;28;20461;-94
2021/01/03 09:31:53;;;;;;;48.93;34.10;;;;;;;;;;5062213;28;20512;-94
2021/01/03 09:34:26;;;;;;;50.40;33.60;;;;;;;;;;5055059;28;20493;-94
2021/01/03 09:36:55;;;;;;;54.00;37.10;;;;;;;;;;5062539;28;20449;-91
2021/01/03 09:39:39;;;;;;;47.33;34.07;;;;;;;;;;5061973;28;20446;-91
2021/01/03 09:42:26;;;;;;;54.73;36.47;;;;;;;;;;5065242;28;20468;-91
2021/01/03 09:44:55;;;;;;;47.80;33.40;;;;;;;;;;5047927;28;20470;-92
2021/01/03 09:47:21;;;;;;;49.03;33.37;;;;;;;;;;5064747;28;20476;-90
2021/01/03 09:49:49;;;;;;;44.63;31.57;;;;;;;;;;5044700;28;20457;-90
2021/01/03 09:52:22;;;;;;;43.43;31.73;;;;;;;;;;5063452;28;20505;-91
2021/01/03 09:54:54;;;;;;;44.27;30.63;;;;;;;;;;5067248;28;20465;-93
2021/01/03 09:57:23;;;;;;;50.10;33.33;;;;;;;;;;5059720;28;20447;-91
2021/01/03 09:59:56;;;;;;;46.97;33.80;;;;;;;;;;5062621;28;20478;-93
2021/01/03 10:02:22;;;;;;;54.10;36.00;;;;;;;;;;5056474;28;20480;-92
2021/01/03 10:04:49;;;;;;;54.77;38.37;;;;;;;;;;5060772;28;20469;-93
2021/01/03 10:07:18;;;;;;;69.30;48.67;;;;;;;;;;5060486;28;20438;-92
2021/01/03 10:09:50;;;;;;;57.13;41.50;;;;;;;;;;5063341;28;20446;-91
2021/01/03 10:12:18;;;;;;;57.37;38.77;;;;;;;;;;5061015;28;20446;-92
2021/01/03 10:14:44;;;;;;;57.53;40.37;;;;;;;;;;5043082;28;20524;-91
2021/01/03 10:17:15;;;;;;;56.83;40.03;;;;;;;;;;5043010;28;20486;-92
2021/01/03 10:19:41;;;;;;;60.33;40.70;;;;;;;;;;5061296;28;20450;-92
2021/01/03 10:22:22;;;;;;;62.53;40.70;;;;;;;;;;5073556;28;20445;-92
2021/01/03 10:24:55;;;;;;;54.50;37.67;;;;;;;;;;5051797;28;20454;-91
2021/01/03 10:27:21;;;;;;;56.97;42.00;;;;;;;;;;5059422;28;20455;-91
2021/01/03 10:29:49;;;;;;;58.57;40.07;;;;;;;;;;5058716;28;20539;-92
2021/01/03 10:32:15;;;;;;;51.23;38.40;;;;;;;;;;5062007;28;20826;-91
2021/01/03 10:34:41;;;;;;;59.53;41.53;;;;;;;;;;5060140;28;20449;-91
2021/01/03 10:37:07;;;;;;;59.77;44.40;;;;;;;;;;5062441;28;20450;-92
2021/01/03 10:39:33;;;;;;;58.03;43.63;;;;;;;;;;5058268;28;20478;-91
2021/01/03 10:42:03;;;;;;;55.70;41.67;;;;;;;;;;5059474;28;20442;-92
2021/01/03 10:44:29;;;;;;;55.03;41.53;;;;;;;;;;5062052;28;20457;-92
2021/01/03 10:46:55;;;;;;;53.00;39.90;;;;;;;;;;5059967;28;20443;-92
2021/01/03 10:49:21;;;;;;;55.10;39.57;;;;;;;;;;5045959;28;20491;-91
2021/01/03 10:51:48;;;;;;;51.83;38.33;;;;;;;;;;5049420;28;20497;-91
2021/01/03 10:54:15;;;;;;;50.23;36.97;;;;;;;;;;5061659;28;20454;-92
2021/01/03 10:56:46;;;;;;;51.07;37.20;;;;;;;;;;5058095;28;20458;-92
2021/01/03 10:59:13;;;;;;;49.00;35.40;;;;;;;;;;5061458;28;20483;-92
2021/01/03 11:01:39;;;;;;;49.53;36.37;;;;;;;;;;5056397;28;20464;-92
2021/01/03 11:04:05;;;;;;;51.43;36.30;;;;;;;;;;5048058;28;20455;-91
2021/01/03 11:06:35;;;;;;;46.33;35.30;;;;;;;;;;5059152;28;20462;-92
2021/01/03 11:09:02;;;;;;;49.50;35.13;;;;;;;;;;5056578;28;20461;-91
2021/01/03 11:11:28;;;;;;;46.20;32.73;;;;;;;;;;5055235;28;20492;-92
2021/01/03 11:13:54;;;;;;;42.30;32.10;;;;;;;;;;5048162;28;20468;-94
2021/01/03 11:16:29;;;;;;;45.33;32.87;;;;;;;;;;5060001;28;20487;-93
2021/01/03 11:18:55;;;;;;;40.40;30.57;;;;;;;;;;5051170;28;20466;-93
2021/01/03 11:21:21;;;;;;;35.97;26.83;;;;;;;;;;5054406;28;20487;-94
2021/01/03 11:23:47;;;;;;;35.20;25.73;;;;;;;;;;5044480;28;20445;-94
2021/01/03 11:26:14;;;;;;;38.50;28.13;;;;;;;;;;5052604;28;20485;-93
2021/01/03 11:28:40;;;;;;;40.80;28.40;;;;;;;;;;5057536;28;20981;-93
2021/01/03 11:31:06;;;;;;;36.80;25.23;;;;;;;;;;5052503;28;20987;-93
2021/01/03 11:33:33;;;;;;;36.47;27.03;;;;;;;;;;5050166;28;21241;-93
2021/01/03 11:35:59;;;;;;;36.13;26.10;;;;;;;;;;5043047;28;20494;-93
2021/01/03 11:38:25;;;;;;;32.20;24.07;;;;;;;;;;5060235;28;20448;-92
2021/01/03 11:40:51;;;;;;;31.93;20.83;;;;;;;;;;5056448;28;20527;-93
2021/01/03 11:43:17;;;;;;;28.87;20.03;;;;;;;;;;5055469;28;20467;-94
2021/01/03 11:45:43;;;;;;;28.07;19.73;;;;;;;;;;5059417;28;20534;-93
2021/01/03 11:48:09;;;;;;;30.23;21.87;;;;;;;;;;5048517;28;20448;-93
2021/01/03 11:50:37;;;;;;;32.13;21.57;;;;;;;;;;5055606;28;20495;-92
2021/01/03 11:53:03;;;;;;;27.83;20.37;;;;;;;;;;5055218;28;20451;-93
2021/01/03 11:55:29;;;;;;;25.33;19.70;;;;;;;;;;5059671;28;20456;-93
2021/01/03 11:57:55;;;;;;;27.30;18.90;;;;;;;;;;5057920;28;20464;-93
2021/01/03 12:00:23;;;;;;;25.00;18.23;;;;;;;;;;5026257;28;695578;-95
2021/01/03 12:02:49;;;;;;;30.27;20.03;;;;;;;;;;5046496;28;20464;-95
2021/01/03 12:05:16;;;;;;;24.07;18.63;;;;;;;;;;5061797;28;21268;-93
2021/01/03 12:07:43;;;;;;;25.67;19.80;;;;;;;;;;5062996;28;20440;-94
2021/01/03 12:10:10;;;;;;;25.60;19.37;;;;;;;;;;5057265;28;20464;-96
2021/01/03 12:12:48;;;;;;;27.77;19.27;;;;;;;;;;5063406;28;20452;-96
2021/01/03 12:15:25;;;;;;;;;;;;;;;;;;;;;
2021/01/03 12:27:53;;;;;;;25.40;18.57;;;;;;;;;;4978330;28;20472;-96
2021/01/03 12:33:49;;;;;;;24.60;20.00;;;;;;;;;;5000457;28;20463;-96
2021/01/03 12:39:33;;;;;;;24.03;18.20;;;;;;;;;;5037698;23;20519;-96
2021/01/03 13:36:54;;;;;;;19.20;16.30;;;;;;;;;;5925495;23;20920;-96
2021/01/03 13:39:31;;;;;;;22.97;17.00;;;;;;;;;;5040126;28;20473;-96
2021/01/03 13:42:01;;;;;;;29.67;19.70;;;;;;;;;;5044831;28;20459;-96
2021/01/03 13:44:32;;;;;;;23.63;19.00;;;;;;;;;;5040324;28;20462;-96
2021/01/03 13:46:59;;;;;;;23.40;17.27;;;;;;;;;;5042874;28;20447;-96
2021/01/03 13:49:28;;;;;;;21.40;17.63;;;;;;;;;;5041993;28;20471;-96
2021/01/03 13:51:55;;;;;;;19.63;15.60;;;;;;;;;;5036772;28;20497;-96
2021/01/03 13:54:21;;;;;;;18.20;16.13;;;;;;;;;;5034236;28;20462;-94
2021/01/03 13:56:49;;;;;;;20.83;16.07;;;;;;;;;;5039097;28;20478;-96
2021/01/03 13:59:15;;;;;;;26.00;21.47;;;;;;;;;;5036674;28;20455;-96
2021/01/03 14:01:41;;;;;;;23.20;17.03;;;;;;;;;;5031423;28;20526;-96
2021/01/03 14:04:10;;;;;;;29.07;18.33;;;;;;;;;;5039339;28;20451;-96
2021/01/03 14:06:36;;;;;;;21.20;17.10;;;;;;;;;;5033358;28;20498;-96
2021/01/03 14:09:04;;;;;;;12.20;9.33;;;;;;;;;;5039452;28;20477;-93
2021/01/03 14:11:30;;;;;;;7.43;6.73;;;;;;;;;;5035236;28;20489;-95
2021/01/03 14:13:57;;;;;;;13.20;9.50;;;;;;;;;;5036934;28;20447;-96
2021/01/03 14:16:30;;;;;;;21.17;14.30;;;;;;;;;;5038223;28;20465;-96
2021/01/03 14:18:56;;;;;;;22.10;14.87;;;;;;;;;;5031824;28;20493;-96
2021/01/03 14:21:23;;;;;;;19.97;14.47;;;;;;;;;;5040665;28;20462;-96
2021/01/03 14:23:49;;;;;;;20.80;14.47;;;;;;;;;;5035824;28;20458;-91
2021/01/03 14:26:16;;;;;;;10.73;7.17;;;;;;;;;;5036271;28;20443;-95
2021/01/03 14:28:42;;;;;;;18.03;13.10;;;;;;;;;;5032782;28;20490;-96
2021/01/03 14:31:19;;;;;;;7.30;5.60;;;;;;;;;;5039040;28;20554;-96
2021/01/03 14:33:45;;;;;;;7.67;5.10;;;;;;;;;;5035464;28;20832;-92
2021/01/03 14:36:11;;;;;;;6.87;5.83;;;;;;;;;;5037453;28;20481;-93
2021/01/03 14:38:37;;;;;;;7.70;5.77;;;;;;;;;;5034309;28;20489;-92
2021/01/03 14:41:03;;;;;;;6.13;4.00;;;;;;;;;;5038662;28;20451;-95
2021/01/03 14:43:34;;;;;;;7.93;4.53;;;;;;;;;;5039381;28;20513;-92
2021/01/03 14:46:02;;;;;;;8.00;4.30;;;;;;;;;;5044712;28;20466;-92
2021/01/03 14:48:39;;;;;;;6.33;4.23;;;;;;;;;;5041848;28;20898;-92
2021/01/03 14:51:06;;;;;;;7.73;4.10;;;;;;;;;;5039569;28;20497;-94
2021/01/03 14:53:33;;;;;;;6.67;3.97;;;;;;;;;;5043509;28;20448;-91
2021/01/03 14:56:09;;;;;;;5.10;4.03;;;;;;;;;;5040256;28;20556;-95
2021/01/03 14:58:47;;;;;;;7.23;4.60;;;;;;;;;;5037661;23;20506;-96
2021/01/03 15:01:23;;;;;;;5.80;4.10;;;;;;;;;;5020298;28;20703;-96
2021/01/03 15:04:01;;;;;;;7.27;4.50;;;;;;;;;;5009832;28;20458;-96
2021/01/03 15:06:45;;;;;;;6.37;4.70;;;;;;;;;;5011795;28;20479;-96
2021/01/03 15:09:12;;;;;;;6.73;4.20;;;;;;;;;;5005359;28;20460;-95
2021/01/03 15:11:48;;;;;;;6.30;4.50;;;;;;;;;;5006742;28;20552;-95
2021/01/03 15:14:15;;;;;;;8.00;5.00;;;;;;;;;;5022752;28;20501;-96
2021/01/03 15:16:41;;;;;;;9.33;4.90;;;;;;;;;;5033630;28;20464;-96
2021/01/03 15:19:10;;;;;;;6.30;4.33;;;;;;;;;;5003360;28;20458;-96
2021/01/03 15:21:36;;;;;;;8.00;4.77;;;;;;;;;;5002799;28;20465;-94
2021/01/03 15:24:03;;;;;;;5.73;4.73;;;;;;;;;;5107834;23;20481;-95
2021/01/03 15:35:42;;;;;;;19.60;13.60;;;;;;;;;;4989452;28;20446;-96
2021/01/03 15:38:10;;;;;;;6.87;4.87;;;;;;;;;;5002432;28;20462;-92
2021/01/03 15:40:37;;;;;;;8.43;5.30;;;;;;;;;;5001552;28;20872;-94
2021/01/03 15:43:11;;;;;;;6.30;4.50;;;;;;;;;;5002003;28;20461;-94
2021/01/03 15:45:40;;;;;;;12.90;8.60;;;;;;;;;;4998679;28;20469;-93
2021/01/03 15:48:07;;;;;;;16.77;11.93;;;;;;;;;;5006238;28;20481;-94
2021/01/03 15:50:33;;;;;;;18.40;11.53;;;;;;;;;;4997788;28;20486;-93
2021/01/03 15:53:01;;;;;;;18.40;13.63;;;;;;;;;;5000887;28;20476;-94
2021/01/03 15:55:28;;;;;;;13.97;11.63;;;;;;;;;;4998763;28;20473;-95
2021/01/03 15:57:54;;;;;;;19.53;13.60;;;;;;;;;;5001411;28;20450;-94
2021/01/03 16:00:21;;;;;;;19.50;13.23;;;;;;;;;;4998264;28;20513;-95
2021/01/03 16:02:47;;;;;;;18.60;12.97;;;;;;;;;;4999799;28;20445;-94
2021/01/03 16:05:15;;;;;;;16.90;12.53;;;;;;;;;;5000418;28;20478;-94
2021/01/03 16:07:41;;;;;;;20.70;14.00;;;;;;;;;;4998923;28;20841;-94
2021/01/03 16:10:08;;;;;;;21.20;14.80;;;;;;;;;;5000542;28;20479;-95
2021/01/03 16:12:34;;;;;;;22.43;15.67;;;;;;;;;;4999119;28;20492;-95
2021/01/03 16:15:01;;;;;;;19.97;13.30;;;;;;;;;;5002102;28;20457;-95
2021/01/03 16:17:27;;;;;;;18.17;12.57;;;;;;;;;;5000592;28;20465;-94
2021/01/03 16:19:54;;;;;;;14.90;11.10;;;;;;;;;;5001945;28;20547;-96
2021/01/03 16:22:38;;;;;;;18.60;11.43;;;;;;;;;;5003047;28;20474;-96
2021/01/03 16:25:12;;;;;;;20.40;11.43;;;;;;;;;;5003099;28;20492;-95
2021/01/03 16:27:42;;;;;;;13.87;10.40;;;;;;;;;;5004713;28;20459;-94
2021/01/03 16:30:11;;;;;;;13.13;11.10;;;;;;;;;;4999911;28;20465;-95
2021/01/03 16:32:42;;;;;;;12.30;11.00;;;;;;;;;;4998098;28;20961;-95